Time;durP1;ratioP1;P1;durP2;ratioP2;P2;SDS_P1;SDS_P2;PMS_P1;PMS_P2;Temp;Humidity;BMP_temperature;BMP_pressure;BME280_temperature;BME280_humidity;BME280_pressure;Samples;Min_cycle;Max_cycle;Signal;HPM_P1;HPM_P2
2022/05/14 01:30:14;;;;;;;;;;;;;;;;;;;;;
2022/05/14 03:35:50;;;;;;;;;;;;;;;;;;;;;
2022/05/14 04:30:19;;;;;;;6.53;2.60;;;;;;;19.06;58.68;98821.41;4973547;28;20223;-83
2022/05/14 05:08:32;;;;;;;;;;;;;;;;;;;;;
2022/05/14 05:11:57;;;;;;;;;;;;;;;;;;;;;
2022/05/14 06:02:49;;;;;;;4.27;1.53;;;;;;;24.48;42.01;98840.47;5147421;27;20193;-83
2022/05/14 06:12:40;;;;;;;3.20;1.70;;;;;;;24.78;42.57;98830.75;5156080;27;20535;-83
2022/05/14 06:22:35;;;;;;;3.30;1.50;;;;;;;25.39;39.64;98824.44;5137357;27;20236;-84
2022/05/14 06:32:14;;;;;;;9.33;1.67;;;;;;;26.80;37.52;98832.19;5137239;27;20668;-84
2022/05/14 06:35:45;;;;;;;3.77;1.57;;;;;;;27.27;37.03;98837.84;5151004;27;20163;-84
2022/05/14 06:55:52;;;;;;;4.82;1.77;;;;;;;29.87;32.59;98832.03;5074084;28;20188;-84
2022/05/14 07:02:22;;;;;;;3.40;1.63;;;;;;;30.21;32.61;98837.16;5055058;28;20271;-85
2022/05/14 07:12:34;;;;;;;;;;;;;;;;;;;;;
2022/05/14 07:15:02;;;;;;;3.30;1.75;;;;;;;30.27;31.74;98846.25;5071694;28;20187;-88
2022/05/14 07:17:28;;;;;;;6.38;1.83;;;;;;;30.27;32.53;98851.66;5056368;28;20254;-87
2022/05/14 07:19:53;;;;;;;3.17;1.63;;;;;;;29.86;32.44;98856.53;5113586;27;20195;-87
2022/05/14 07:22:20;;;;;;;4.45;1.55;;;;;;;30.06;33.16;98851.94;5136845;27;20261;-87
2022/05/14 07:24:47;;;;;;;6.28;2.20;;;;;;;30.38;33.54;98851.03;5118993;27;20195;-88
2022/05/14 07:27:14;;;;;;;3.30;1.70;;;;;;;30.27;33.09;98854.38;5104830;27;20183;-86
2022/05/14 07:29:42;;;;;;;2.70;1.38;;;;;;;30.46;33.30;98850.78;5136437;27;20175;-86
2022/05/14 07:32:15;;;;;;;3.25;1.65;;;;;;;30.68;32.23;98845.91;5136777;27;20637;-85
2022/05/14 07:34:41;;;;;;;4.45;2.13;;;;;;;30.79;31.39;98854.16;5118154;27;20223;-89
2022/05/14 07:37:27;;;;;;;3.15;1.70;;;;;;;30.40;31.10;98855.19;5136370;27;20250;-89
2022/05/14 07:40:00;;;;;;;3.58;1.65;;;;;;;30.31;30.70;98863.72;5117159;27;20609;-89
2022/05/14 07:42:33;;;;;;;2.92;1.38;;;;;;;30.39;31.59;98863.53;5144770;27;20186;-88
2022/05/14 07:45:01;;;;;;;7.03;1.90;;;;;;;30.09;31.65;98870.44;5158938;27;20190;-88
2022/05/14 07:47:31;;;;;;;6.85;2.20;;;;;;;30.12;33.08;98859.19;5159079;27;20578;-88
2022/05/14 07:49:58;;;;;;;4.85;1.50;;;;;;;30.21;32.56;98866.88;5157597;27;20198;-89
2022/05/14 07:52:24;;;;;;;3.30;1.60;;;;;;;30.12;32.53;98867.31;5141417;27;20174;-87
2022/05/14 07:54:52;;;;;;;8.68;2.45;;;;;;;29.78;32.38;98877.34;5158798;27;20290;-85
2022/05/14 07:57:18;;;;;;;14.88;6.50;;;;;;;29.63;33.11;98874.00;5138161;27;20209;-85
2022/05/14 07:59:44;;;;;;;5.38;3.42;;;;;;;29.56;33.59;98866.94;5135987;27;20183;-85
2022/05/14 08:02:26;;;;;;;6.22;3.55;;;;;;;29.40;33.49;98867.38;5137949;27;20258;-85
2022/05/14 08:04:52;;;;;;;3.40;1.77;;;;;;;29.40;34.33;98872.75;5156615;27;20273;-84
2022/05/14 08:07:18;;;;;;;4.20;1.45;;;;;;;29.54;34.10;98869.84;5158133;27;20174;-85
2022/05/14 08:09:44;;;;;;;2.85;1.70;;;;;;;29.66;33.89;98865.50;5154863;27;20261;-85
2022/05/14 08:12:11;;;;;;;3.17;1.60;;;;;;;29.62;32.79;98869.63;5156754;27;20170;-85
2022/05/14 08:14:39;;;;;;;4.35;1.80;;;;;;;29.70;34.02;98871.28;5162551;27;20239;-84
2022/05/14 08:17:10;;;;;;;3.08;1.63;;;;;;;29.66;33.18;98865.50;5159374;27;20173;-85
2022/05/14 08:19:36;;;;;;;3.22;2.30;;;;;;;29.54;34.72;98869.84;5145340;27;20317;-84
2022/05/14 08:24:48;;;;;;;2.50;1.38;;;;;;;29.18;35.02;98863.97;5135518;27;20604;-85
2022/05/14 08:27:13;;;;;;;4.78;2.50;;;;;;;29.39;35.26;98863.81;5129896;27;20175;-85
2022/05/14 08:29:39;;;;;;;3.88;1.30;;;;;;;29.47;34.04;98863.63;5154148;27;20178;-86
2022/05/14 08:32:06;;;;;;;3.72;1.92;;;;;;;29.11;36.28;98874.75;5155311;27;20606;-87
2022/05/14 08:34:32;;;;;;;5.57;3.13;;;;;;;29.27;35.36;98873.59;5155521;27;20190;-86
2022/05/14 08:36:58;;;;;;;4.70;2.47;;;;;;;29.07;34.95;98878.06;5144139;27;20185;-86
2022/05/14 08:39:25;;;;;;;4.68;1.70;;;;;;;28.97;35.21;98878.47;5118187;27;20287;-86
2022/05/14 08:41:52;;;;;;;2.97;1.67;;;;;;;28.92;35.93;98880.97;5132319;27;20178;-86
2022/05/14 08:44:24;;;;;;;4.60;3.00;;;;;;;28.64;35.16;98888.34;5114570;28;20152;-86
2022/05/14 08:47:33;;;;;;;11.80;5.10;;;;;;;28.29;35.42;98895.59;5111376;27;20190;-85
2022/05/14 08:49:58;;;;;;;4.53;1.88;;;;;;;28.54;36.47;98898.63;5116263;27;20277;-86
2022/05/14 08:52:26;;;;;;;5.22;2.53;;;;;;;28.52;36.96;98896.13;5134836;27;20207;-86
2022/05/14 08:55:01;;;;;;;5.60;2.35;;;;;;;28.71;37.46;98883.78;5134705;27;20182;-87
2022/05/14 08:57:38;;;;;;;5.05;2.35;;;;;;;28.34;35.42;98892.31;5131960;27;20170;-86
2022/05/14 09:00:06;;;;;;;5.80;3.10;;;;;;;28.20;36.88;98888.69;5104366;28;20528;-85
2022/05/14 09:02:44;;;;;;;9.00;3.25;;;;;;;28.20;37.62;98901.38;5115151;27;20549;-86
2022/05/14 09:05:12;;;;;;;3.47;1.60;;;;;;;28.17;38.52;98899.06;5127095;27;20215;-86
2022/05/14 09:07:38;;;;;;;3.30;1.80;;;;;;;28.53;38.41;98897.81;5097953;27;20561;-85
2022/05/14 09:10:08;;;;;;;4.28;2.28;;;;;;;28.42;36.51;98890.28;5133275;27;20179;-84
2022/05/14 09:12:37;;;;;;;6.32;3.08;;;;;;;28.27;38.02;98892.28;5134569;27;20705;-84
2022/05/14 09:15:10;;;;;;;21.65;9.55;;;;;;;28.30;39.04;98897.25;5134188;27;20170;-85
2022/05/14 09:17:35;;;;;;;9.38;4.72;;;;;;;28.28;37.35;98896.63;5134401;27;20171;-84
2022/05/14 09:20:01;;;;;;;18.13;8.45;;;;;;;28.38;36.97;98899.78;5133840;27;20185;-85
2022/05/14 09:22:52;;;;;;;3.78;2.10;;;;;;;28.87;36.53;98894.22;5133813;28;20176;-84
2022/05/14 09:25:31;;;;;;;3.85;2.10;;;;;;;29.01;35.81;98893.22;5125530;28;20199;-85
2022/05/14 09:28:04;;;;;;;5.90;2.00;;;;;;;29.38;37.98;98888.31;5119211;28;20182;-86
2022/05/14 09:30:41;;;;;;;6.20;1.90;;;;;;;29.84;36.11;98894.59;5130169;28;20722;-85
2022/05/14 09:33:21;;;;;;;6.03;1.90;;;;;;;30.13;32.45;98890.63;5134092;28;20187;-85
2022/05/14 09:36:00;;;;;;;8.82;2.70;;;;;;;29.82;32.98;98894.78;5114553;28;20632;-86
2022/05/14 09:38:26;;;;;;;4.32;1.88;;;;;;;29.87;33.03;98890.66;5127638;28;20228;-84
2022/05/14 09:40:55;;;;;;;3.70;2.10;;;;;;;30.02;34.17;98892.09;5107760;28;20273;-85
2022/05/14 09:43:20;;;;;;;10.10;3.85;;;;;;;30.25;34.59;98888.91;5147056;27;20197;-85
2022/05/14 09:46:10;;;;;;;4.82;1.98;;;;;;;30.16;32.62;98892.91;5143292;27;20281;-86
2022/05/14 09:48:47;;;;;;;3.58;2.10;;;;;;;30.32;32.80;98878.91;5141049;27;20247;-85
2022/05/14 09:51:25;;;;;;;3.35;1.55;;;;;;;30.62;34.50;98877.38;5137987;27;20174;-85
2022/05/14 09:53:52;;;;;;;3.58;1.67;;;;;;;30.36;33.90;98880.19;5138088;27;20178;-85
2022/05/14 09:56:26;;;;;;;4.88;2.08;;;;;;;30.51;32.81;98888.84;5144624;27;20548;-85
2022/05/14 09:59:01;;;;;;;6.55;2.15;;;;;;;30.91;33.55;98884.97;5154519;27;20200;-85
2022/05/14 10:01:36;;;;;;;5.60;2.28;;;;;;;31.34;34.56;98876.16;5134984;27;20186;-85
2022/05/14 10:04:25;;;;;;;5.75;1.90;;;;;;;31.38;35.35;98869.25;5130071;27;20177;-85
2022/05/14 10:07:04;;;;;;;4.60;2.22;;;;;;;31.47;34.42;98867.97;5135201;27;20281;-86
2022/05/14 10:09:39;;;;;;;11.50;3.85;;;;;;;31.51;32.71;98864.59;5150924;27;20169;-85
2022/05/14 10:12:19;;;;;;;4.13;1.92;;;;;;;31.63;31.88;98865.50;5168383;27;20600;-84
2022/05/14 10:14:53;;;;;;;7.88;2.15;;;;;;;31.74;32.25;98858.53;5164929;27;20661;-86
2022/05/14 10:17:19;;;;;;;5.20;2.17;;;;;;;31.67;33.08;98863.19;5152406;27;20549;-85
2022/05/14 10:20:14;;;;;;;4.70;1.90;;;;;;;31.78;31.36;98862.47;5155744;27;20174;-84
2022/05/14 10:29:11;;;;;;;7.50;2.35;;;;;;;31.93;33.57;98854.81;5157568;27;20266;-85
2022/05/14 10:31:55;;;;;;;4.13;2.20;;;;;;;32.02;33.56;98864.31;5131180;27;20228;-86
2022/05/14 10:34:34;;;;;;;4.03;2.17;;;;;;;31.62;32.28;98857.63;5156852;27;20253;-84
2022/05/14 10:37:04;;;;;;;4.38;1.95;;;;;;;31.59;31.48;98860.75;5148766;27;20167;-85
2022/05/14 10:39:39;;;;;;;4.38;2.63;;;;;;;31.28;31.65;98866.19;5144328;27;20181;-85
2022/05/14 10:42:32;;;;;;;5.47;2.85;;;;;;;30.89;31.92;98862.66;5139173;27;20222;-85
2022/05/14 10:45:31;;;;;;;3.63;1.75;;;;;;;30.67;32.99;98861.31;5157711;27;20613;-85
2022/05/14 10:48:00;;;;;;;4.85;2.70;;;;;;;30.40;34.10;98870.56;5131927;27;20708;-85
2022/05/14 10:50:29;;;;;;;4.57;2.25;;;;;;;30.83;34.72;98868.94;5141295;27;20206;-85
2022/05/14 10:52:56;;;;;;;4.82;2.50;;;;;;;31.11;34.02;98873.16;5140950;27;20238;-84
2022/05/14 10:55:23;;;;;;;7.25;2.45;;;;;;;30.75;31.65;98863.78;5129437;27;20174;-85
2022/05/14 10:57:56;;;;;;;7.60;2.33;;;;;;;30.43;33.18;98867.44;5154403;27;20531;-84
2022/05/14 11:00:43;;;;;;;5.45;2.60;;;;;;;30.54;33.18;98868.66;5172695;27;20160;-84
2022/05/14 11:03:21;;;;;;;6.38;1.88;;;;;;;30.54;34.19;98869.50;5151488;27;20171;-84
2022/05/14 11:06:02;;;;;;;5.40;1.98;;;;;;;30.95;33.38;98864.53;5159462;27;20300;-85
2022/05/14 11:08:35;;;;;;;7.07;2.65;;;;;;;31.36;34.03;98864.06;5137542;27;20614;-85
2022/05/14 11:11:23;;;;;;;5.45;1.83;;;;;;;31.16;32.95;98865.25;5126534;27;20178;-88
2022/05/14 11:14:01;;;;;;;3.55;1.90;;;;;;;31.03;33.19;98866.97;5157755;27;20178;-87
2022/05/14 11:16:38;;;;;;;4.28;1.90;;;;;;;31.31;33.13;98860.34;5157723;27;20259;-84
2022/05/14 11:19:07;;;;;;;5.22;2.00;;;;;;;31.56;33.77;98863.91;5138808;27;20169;-87
2022/05/14 11:21:46;;;;;;;3.22;1.90;;;;;;;31.79;32.50;98858.69;5138792;27;20559;-86
2022/05/14 11:24:16;;;;;;;4.13;1.83;;;;;;;31.62;32.36;98857.63;5156913;27;20253;-87
2022/05/14 11:26:51;;;;;;;3.75;1.80;;;;;;;31.76;32.77;98856.41;5138567;27;20225;-85
2022/05/14 11:29:18;;;;;;;3.53;1.98;;;;;;;31.67;33.69;98855.06;5157405;27;20273;-85
2022/05/14 11:31:56;;;;;;;4.47;1.80;;;;;;;31.98;32.47;98838.69;5156765;27;20254;-88
2022/05/14 11:34:29;;;;;;;4.55;1.65;;;;;;;32.01;33.22;98848.28;5157132;27;20185;-88
2022/05/14 11:36:58;;;;;;;3.88;2.25;;;;;;;32.01;34.55;98843.72;5138472;27;20166;-86
2022/05/14 11:39:38;;;;;;;3.55;1.67;;;;;;;31.94;31.84;98840.22;5138421;27;20185;-85
2022/05/14 11:42:25;;;;;;;3.60;2.28;;;;;;;31.60;31.62;98840.75;5132856;27;20226;-86
2022/05/14 11:44:56;;;;;;;6.53;2.17;;;;;;;31.26;32.31;98841.22;5119880;27;20200;-86
2022/05/14 11:47:55;;;;;;;6.40;3.28;;;;;;;30.96;32.24;98839.13;5118652;27;20614;-86
2022/05/14 11:50:30;;;;;;;5.93;2.80;;;;;;;31.06;32.31;98837.78;5135001;27;20527;-88
2022/05/14 11:53:25;;;;;;;2.63;1.38;;;;;;;30.93;31.48;98836.00;5124333;27;20186;-85
2022/05/14 11:56:06;;;;;;;5.18;2.17;;;;;;;30.82;31.29;98842.91;5115369;28;20156;-85
2022/05/14 11:58:41;;;;;;;4.32;2.03;;;;;;;30.72;31.92;98823.59;5115579;28;20156;-86
2022/05/14 12:01:20;;;;;;;2.45;1.42;;;;;;;30.71;33.18;98827.38;5120829;27;20269;-87
2022/05/14 12:03:47;;;;;;;3.55;1.33;;;;;;;31.10;33.79;98825.50;5115435;28;20163;-87
2022/05/14 12:06:48;;;;;;;2.60;0.95;;;;;;;31.34;32.24;98820.06;5114094;28;20211;-87
2022/05/14 12:09:32;;;;;;;2.03;0.90;;;;;;;31.37;32.09;98822.34;5113723;27;20185;-86
2022/05/14 12:12:09;;;;;;;1.73;0.90;;;;;;;31.07;32.46;98823.22;5115528;28;20224;-87
2022/05/14 12:14:36;;;;;;;7.40;1.02;;;;;;;31.12;32.42;98818.81;5115004;28;20170;-87
2022/05/14 12:17:06;;;;;;;1.48;0.98;;;;;;;31.18;32.37;98814.41;5114895;28;20263;-87
2022/05/14 12:19:39;;;;;;;2.60;1.10;;;;;;;31.02;32.55;98816.59;5114358;28;20248;-86
2022/05/14 12:22:18;;;;;;;1.85;0.88;;;;;;;30.88;32.24;98809.56;5127621;27;20179;-86
2022/05/14 12:24:54;;;;;;;1.67;0.73;;;;;;;31.17;33.61;98812.72;5134321;27;20210;-87
2022/05/14 12:27:20;;;;;;;1.70;1.00;;;;;;;31.03;31.83;98820.09;5134036;27;20182;-88
2022/05/14 12:30:05;;;;;;;1.77;0.80;;;;;;;30.91;31.70;98808.34;5134272;27;20251;-90
2022/05/14 12:35:22;;;;;;;3.67;1.13;;;;;;;30.95;33.04;98799.56;5135454;27;20174;-88
2022/05/14 12:37:52;;;;;;;1.90;0.82;;;;;;;30.67;32.44;98799.09;5133724;27;20183;-89
2022/05/14 12:40:23;;;;;;;3.30;0.82;;;;;;;30.92;33.40;98796.47;5133621;27;20175;-87
2022/05/14 12:42:53;;;;;;;4.93;1.40;;;;;;;31.30;34.09;98796.38;5145822;27;20190;-91
2022/05/14 12:45:33;;;;;;;1.75;0.85;;;;;;;31.20;33.41;98796.03;5143318;27;20576;-87
2022/05/14 12:48:01;;;;;;;2.40;1.38;;;;;;;31.39;33.45;98795.06;5134142;27;20568;-88
2022/05/14 12:50:33;;;;;;;2.03;0.82;;;;;;;31.26;33.16;98800.59;5133334;27;20193;-87
2022/05/14 12:53:08;;;;;;;1.98;0.95;;;;;;;30.94;32.74;98791.66;5116495;27;20544;-87
2022/05/14 12:55:49;;;;;;;2.63;1.20;;;;;;;30.82;32.96;98796.06;5142017;27;20169;-89
2022/05/14 12:58:17;;;;;;;1.58;1.00;;;;;;;30.96;33.16;98784.97;5140970;27;20182;-86
2022/05/14 13:00:50;;;;;;;1.63;0.90;;;;;;;30.96;33.14;98779.56;5141356;27;20702;-90
2022/05/14 13:03:28;;;;;;;1.88;0.80;;;;;;;31.49;33.02;98763.72;5119993;27;20187;-90
2022/05/14 13:06:03;;;;;;;2.88;1.10;;;;;;;31.77;33.24;98763.22;5144014;27;20249;-86
2022/05/14 13:08:32;;;;;;;2.10;1.20;;;;;;;31.79;33.04;98760.31;5146139;27;20279;-86
2022/05/14 13:11:06;;;;;;;3.20;1.50;;;;;;;31.91;32.82;98763.91;5144667;27;20240;-88
2022/05/14 13:13:40;;;;;;;4.20;1.10;;;;;;;31.79;32.75;98761.09;5113862;27;20193;-88
2022/05/14 13:16:12;;;;;;;2.20;1.15;;;;;;;31.23;33.08;98753.09;5136050;27;20223;-87
2022/05/14 13:19:03;;;;;;;2.63;0.90;;;;;;;31.26;33.50;98757.25;5153144;27;20185;-87
2022/05/14 13:21:34;;;;;;;2.25;0.88;;;;;;;31.06;33.38;98756.56;5143287;27;20189;-89
2022/05/14 13:24:19;;;;;;;1.23;0.60;;;;;;;31.38;33.02;98740.03;5141149;27;20236;-87
2022/05/14 13:26:49;;;;;;;1.45;0.80;;;;;;;31.20;32.71;98741.88;5135103;27;20195;-88
2022/05/14 13:29:40;;;;;;;3.22;1.15;;;;;;;31.22;33.29;98739.78;5099553;28;20191;-89
2022/05/14 13:32:25;;;;;;;3.95;0.95;;;;;;;31.46;33.53;98741.66;5120186;27;20240;-87
2022/05/14 13:37:53;;;;;;;2.45;1.17;;;;;;;31.55;32.58;98753.88;5155246;27;20184;-87
2022/05/14 13:40:53;;;;;;;1.88;1.08;;;;;;;31.31;32.78;98754.69;5138360;27;20249;-88
2022/05/14 13:43:29;;;;;;;3.70;1.35;;;;;;;31.24;33.27;98751.19;5104435;28;20218;-88
2022/05/14 13:46:00;;;;;;;3.88;1.15;;;;;;;31.38;33.49;98747.34;5116361;28;20272;-89
2022/05/14 13:48:43;;;;;;;3.03;1.08;;;;;;;31.19;33.56;98745.63;5139917;27;20246;-89
2022/05/14 13:51:18;;;;;;;2.25;1.20;;;;;;;31.10;33.78;98749.69;5152886;27;20254;-88
2022/05/14 13:53:52;;;;;;;3.70;1.38;;;;;;;30.96;34.57;98741.66;5148900;27;20218;-88
2022/05/14 13:56:23;;;;;;;3.95;1.38;;;;;;;30.98;34.24;98750.38;5141585;27;20242;-88
2022/05/14 13:59:39;;;;;;;3.13;1.17;;;;;;;31.25;33.97;98739.34;5144643;27;20274;-88
2022/05/14 14:02:25;;;;;;;3.85;1.27;;;;;;;31.32;33.98;98735.50;5110671;28;20198;-88
2022/05/14 14:04:57;;;;;;;5.05;1.05;;;;;;;31.19;33.87;98735.63;5148663;27;20610;-89
2022/05/14 14:07:32;;;;;;;2.95;1.45;;;;;;;31.33;33.64;98737.19;5145027;27;20174;-91
2022/05/14 14:09:59;;;;;;;2.60;1.20;;;;;;;30.81;34.02;98745.69;5140600;27;20187;-88
2022/05/14 14:12:25;;;;;;;3.05;1.42;;;;;;;30.69;34.24;98740.16;5158995;27;20193;-91
2022/05/14 14:14:53;;;;;;;3.63;1.15;;;;;;;30.98;34.86;98738.72;5157000;27;20235;-89
2022/05/14 14:17:18;;;;;;;2.65;1.20;;;;;;;31.12;34.89;98734.03;5140121;27;20235;-89
2022/05/14 14:19:44;;;;;;;2.03;1.25;;;;;;;30.93;33.59;98735.84;5142833;27;20186;-91
2022/05/14 14:22:12;;;;;;;2.03;0.90;;;;;;;30.93;35.26;98742.09;5145608;27;20182;-91
2022/05/14 14:24:41;;;;;;;2.33;1.13;;;;;;;30.52;35.29;98735.50;5137708;27;20567;-89
2022/05/14 14:27:07;;;;;;;2.42;1.10;;;;;;;30.57;35.39;98741.06;5137111;27;20190;-88
2022/05/14 14:29:33;;;;;;;3.28;1.27;;;;;;;31.15;35.29;98747.13;5156182;27;20178;-89
2022/05/14 14:31:59;;;;;;;3.45;1.17;;;;;;;31.28;33.90;98747.00;5155864;27;20166;-89
2022/05/14 14:34:24;;;;;;;2.85;1.13;;;;;;;31.09;33.86;98743.44;5156010;27;20162;-88
2022/05/14 14:36:50;;;;;;;1.63;0.82;;;;;;;31.15;33.86;98739.84;5139648;27;20257;-89
2022/05/14 14:39:15;;;;;;;2.50;1.30;;;;;;;30.91;34.21;98744.19;5157850;27;20549;-89
2022/05/14 14:41:41;;;;;;;2.83;1.17;;;;;;;31.21;33.70;98730.81;5158124;27;20242;-88
2022/05/14 14:44:06;;;;;;;2.50;1.55;;;;;;;31.06;33.59;98737.63;5139362;27;20581;-89
2022/05/14 14:46:33;;;;;;;2.72;1.20;;;;;;;30.73;33.38;98738.69;5157910;27;20222;-88
2022/05/14 14:49:03;;;;;;;2.40;1.45;;;;;;;30.64;34.57;98725.63;5139942;27;20664;-89
2022/05/14 14:51:28;;;;;;;2.65;1.10;;;;;;;30.95;35.08;98723.75;5139528;27;20170;-89
2022/05/14 14:53:54;;;;;;;1.80;0.77;;;;;;;31.09;35.21;98721.75;5139247;27;20612;-89
2022/05/14 14:56:19;;;;;;;3.03;1.23;;;;;;;31.22;33.97;98718.09;5139250;27;20178;-88
2022/05/14 14:58:45;;;;;;;2.47;1.17;;;;;;;31.36;34.23;98715.06;5157712;27;20181;-89
2022/05/14 15:01:20;;;;;;;2.92;0.93;;;;;;;31.57;34.55;98716.53;5157379;27;20170;-88
2022/05/14 15:03:51;;;;;;;2.55;1.20;;;;;;;31.28;34.69;98723.47;5157359;27;20241;-87
2022/05/14 15:06:18;;;;;;;3.78;1.38;;;;;;;31.32;34.20;98721.13;5157239;27;20178;-89
2022/05/14 15:08:46;;;;;;;4.57;1.40;;;;;;;31.37;33.98;98718.56;5138966;27;20178;-88
2022/05/14 15:11:18;;;;;;;3.00;1.35;;;;;;;31.36;33.92;98716.94;5157181;27;20175;-89
2022/05/14 15:13:47;;;;;;;2.10;1.20;;;;;;;31.25;34.36;98712.25;5139512;27;20613;-88
2022/05/14 15:16:12;;;;;;;7.30;1.00;;;;;;;31.01;34.21;98722.88;5139134;27;20167;-89
2022/05/14 15:18:42;;;;;;;2.38;1.15;;;;;;;30.97;34.65;98718.13;5156735;27;20230;-89
2022/05/14 15:21:09;;;;;;;2.70;1.35;;;;;;;31.18;34.52;98711.50;5157011;27;20174;-89
2022/05/14 15:23:35;;;;;;;2.78;1.40;;;;;;;31.24;34.92;98713.28;5156924;27;20209;-88
2022/05/14 15:26:01;;;;;;;2.40;1.13;;;;;;;31.13;34.79;98714.03;5156771;27;20190;-89
2022/05/14 15:28:27;;;;;;;2.15;1.40;;;;;;;31.06;35.05;98716.78;5138583;27;20167;-90
2022/05/14 15:30:53;;;;;;;3.40;1.45;;;;;;;31.01;35.30;98711.22;5156805;27;20166;-88
2022/05/14 15:33:19;;;;;;;2.88;1.30;;;;;;;30.75;35.24;98714.09;5138844;27;20673;-88
2022/05/14 15:35:44;;;;;;;2.70;1.50;;;;;;;30.52;36.23;98711.97;5138672;27;20166;-89
2022/05/14 15:38:13;;;;;;;2.55;1.10;;;;;;;30.47;36.34;98709.09;5156920;27;20174;-90
2022/05/14 15:40:45;;;;;;;3.70;1.50;;;;;;;30.48;36.31;98705.31;5156539;27;20181;-88
2022/05/14 15:43:13;;;;;;;4.25;1.23;;;;;;;30.63;36.29;98707.75;5156695;27;20269;-88
2022/05/14 15:45:46;;;;;;;3.83;1.38;;;;;;;30.55;36.64;98706.13;5156423;27;20186;-88
2022/05/14 15:48:32;;;;;;;3.13;1.20;;;;;;;30.44;36.86;98701.41;5156755;27;20170;-88
2022/05/14 15:51:05;;;;;;;3.25;1.30;;;;;;;30.25;37.28;98708.56;5157301;27;20161;-88
2022/05/14 15:53:30;;;;;;;4.75;1.50;;;;;;;30.15;37.51;98704.66;5138901;27;20580;-88
2022/05/14 15:55:57;;;;;;;3.55;1.27;;;;;;;30.08;37.33;98695.78;5156808;27;20194;-89
2022/05/14 15:58:24;;;;;;;3.70;1.55;;;;;;;30.09;37.52;98697.41;5138245;27;20186;-88
2022/05/14 16:00:50;;;;;;;2.60;1.50;;;;;;;30.10;37.47;98696.38;5138200;27;20246;-87
2022/05/14 16:03:15;;;;;;;2.63;1.40;;;;;;;30.22;37.64;98700.03;5156373;27;20174;-87
2022/05/14 16:05:41;;;;;;;5.00;1.65;;;;;;;30.28;37.89;98699.19;5156069;27;20567;-88
2022/05/14 16:08:07;;;;;;;2.67;1.42;;;;;;;30.26;38.72;98701.28;5156555;27;20198;-88
2022/05/14 16:16:10;;;;;;;6.13;1.88;;;;;;;30.00;40.39;98707.66;5143364;27;20184;-88
2022/05/14 16:18:43;;;;;;;2.65;1.35;;;;;;;29.98;40.89;98693.50;5145132;27;20171;-88
2022/05/14 16:21:25;;;;;;;4.20;2.10;;;;;;;29.91;40.28;98697.28;5143484;27;20174;-89
2022/05/14 16:24:14;;;;;;;2.15;1.30;;;;;;;29.91;39.99;98708.09;5149456;27;20220;-88
2022/05/14 16:27:12;;;;;;;3.90;1.50;;;;;;;29.94;40.10;98708.50;5144161;27;20210;-88
2022/05/14 16:30:23;;;;;;;;;;;;;;;;;;;;;
2022/05/14 16:32:57;;;;;;;6.20;1.52;;;;;;;29.94;40.53;98719.31;5143011;27;20192;-91
2022/05/14 16:35:24;;;;;;;3.70;1.52;;;;;;;29.96;40.44;98730.75;5115242;27;20412;-89
2022/05/14 16:37:58;;;;;;;3.85;1.45;;;;;;;29.91;40.64;98724.31;5115320;27;20274;-88
2022/05/14 16:40:25;;;;;;;2.70;1.42;;;;;;;29.83;40.36;98730.78;5133208;27;20175;-89
2022/05/14 16:42:59;;;;;;;4.68;1.30;;;;;;;29.64;40.79;98734.34;5133447;27;20864;-88
2022/05/14 16:45:31;;;;;;;3.65;1.77;;;;;;;29.37;41.79;98728.19;5132968;27;20265;-89
2022/05/14 16:48:00;;;;;;;3.05;1.35;;;;;;;29.26;42.08;98738.78;5114724;27;20198;-88
2022/05/14 16:50:43;;;;;;;4.07;1.40;;;;;;;29.14;41.94;98741.25;5134866;27;20193;-88
2022/05/14 16:53:10;;;;;;;3.33;1.65;;;;;;;29.01;42.18;98754.75;5146658;27;20178;-90
2022/05/14 16:55:36;;;;;;;16.42;10.30;;;;;;;28.87;42.46;98758.47;5138691;27;20174;-90
2022/05/14 16:58:04;;;;;;;11.43;4.82;;;;;;;28.78;42.46;98759.69;5117302;27;20183;-89
2022/05/14 17:00:38;;;;;;;3.63;1.83;;;;;;;28.63;42.97;98763.44;5134708;27;20171;-87
2022/05/14 17:03:08;;;;;;;5.22;2.38;;;;;;;28.56;42.72;98762.53;5135002;27;20238;-90
2022/05/14 17:05:41;;;;;;;27.10;14.00;;;;;;;28.41;43.33;98767.28;5116709;27;20222;-88
2022/05/14 17:08:08;;;;;;;15.45;8.25;;;;;;;28.25;43.32;98764.13;5134806;27;20508;-88
2022/05/14 17:10:38;;;;;;;27.17;13.98;;;;;;;28.12;44.10;98764.06;5139927;27;20210;-87
2022/05/14 17:13:05;;;;;;;11.00;6.45;;;;;;;28.06;43.56;98760.31;5146441;27;20171;-88
2022/05/14 17:15:33;;;;;;;4.07;2.45;;;;;;;27.94;44.32;98761.88;5134655;27;20162;-88
2022/05/14 17:18:01;;;;;;;7.68;2.10;;;;;;;27.86;44.08;98762.88;5144265;27;20190;-87
2022/05/14 17:20:31;;;;;;;4.68;1.65;;;;;;;27.81;44.64;98761.78;5134830;27;20174;-87
2022/05/14 17:23:02;;;;;;;4.65;2.03;;;;;;;27.79;44.37;98764.72;5116885;27;20610;-88
2022/05/14 17:25:30;;;;;;;2.28;1.30;;;;;;;27.75;43.53;98768.81;5136917;27;20209;-87
2022/05/14 17:27:58;;;;;;;3.97;1.85;;;;;;;27.77;43.34;98782.09;5147006;27;20228;-87
2022/05/14 17:30:29;;;;;;;5.35;1.35;;;;;;;27.64;43.77;98771.25;5117726;28;20267;-87
2022/05/14 17:32:56;;;;;;;2.58;1.40;;;;;;;27.50;43.99;98780.25;5124716;27;20287;-88
2022/05/14 17:35:23;;;;;;;3.28;1.63;;;;;;;27.32;44.75;98783.41;5149456;27;20230;-88
2022/05/14 17:40:35;;;;;;;5.22;2.33;;;;;;;27.22;44.85;98778.38;5148729;27;20278;-87
2022/05/14 17:43:02;;;;;;;9.43;2.33;;;;;;;27.28;44.59;98788.34;5130997;27;20222;-88
2022/05/14 17:45:29;;;;;;;3.53;1.73;;;;;;;27.31;44.26;98787.94;5115250;27;20219;-88
2022/05/14 17:47:56;;;;;;;8.25;1.88;;;;;;;27.20;44.13;98780.41;5135179;27;20186;-87
2022/05/14 17:50:31;;;;;;;9.00;1.50;;;;;;;27.08;44.91;98781.97;5155705;27;20193;-87
2022/05/14 17:52:58;;;;;;;5.93;2.38;;;;;;;27.15;44.51;98790.94;5145692;27;20518;-89
2022/05/14 17:55:37;;;;;;;4.40;1.85;;;;;;;27.18;44.30;98782.47;5116676;27;20186;-88
2022/05/14 17:58:05;;;;;;;3.00;1.75;;;;;;;27.11;44.66;98783.44;5151251;27;20636;-87
2022/05/14 18:00:38;;;;;;;4.57;1.73;;;;;;;26.98;44.78;98791.41;5158340;27;20226;-88
2022/05/14 18:03:07;;;;;;;3.08;1.60;;;;;;;26.87;45.47;98779.28;5146373;27;20187;-88
2022/05/14 18:05:34;;;;;;;3.13;1.40;;;;;;;26.80;46.51;98779.25;5150459;27;20302;-89
2022/05/14 18:08:01;;;;;;;2.50;1.48;;;;;;;26.71;46.54;98784.88;5154014;27;20536;-90
2022/05/14 18:10:28;;;;;;;6.65;2.08;;;;;;;26.57;47.10;98786.59;5153220;27;20174;-91
2022/05/14 18:12:55;;;;;;;5.32;1.92;;;;;;;26.46;47.44;98783.59;5123561;27;20247;-90
2022/05/14 18:15:24;;;;;;;5.77;2.37;;;;;;;26.32;48.08;98789.84;5153909;27;20185;-90
2022/05/14 18:17:51;;;;;;;6.73;3.33;;;;;;;26.31;48.70;98785.50;5125944;27;20198;-89
2022/05/14 18:20:26;;;;;;;7.57;2.92;;;;;;;26.36;48.49;98781.22;5157929;27;20257;-89
2022/05/14 18:22:53;;;;;;;4.63;1.80;;;;;;;26.29;48.96;98784.84;5146349;27;20184;-89
2022/05/14 18:25:22;;;;;;;6.82;3.13;;;;;;;26.30;48.81;98783.81;5141947;27;20211;-88
2022/05/14 18:28:02;;;;;;;7.20;2.58;;;;;;;26.21;49.20;98791.16;5146773;27;20183;-89
2022/05/14 18:30:36;;;;;;;3.63;2.22;;;;;;;26.09;49.18;98789.94;5102483;27;20607;-89
2022/05/14 18:33:25;;;;;;;3.63;2.05;;;;;;;26.02;49.78;98789.84;5135821;27;20177;-88
2022/05/14 18:36:00;;;;;;;4.97;2.33;;;;;;;25.91;49.90;98786.81;5136444;27;20667;-89
2022/05/14 18:38:36;;;;;;;6.80;2.20;;;;;;;25.85;50.72;98793.75;5143067;27;20269;-88
2022/05/14 18:41:04;;;;;;;5.23;2.13;;;;;;;25.85;50.79;98799.13;5125096;27;20186;-88
2022/05/14 18:43:30;;;;;;;4.30;1.87;;;;;;;25.75;51.20;98803.94;5141962;27;20584;-89
2022/05/14 18:45:58;;;;;;;5.37;2.23;;;;;;;25.78;50.99;98808.94;5144536;27;20684;-88
2022/05/14 18:48:25;;;;;;;3.97;1.90;;;;;;;25.81;50.56;98805.91;5143243;27;20670;-88
2022/05/14 18:50:52;;;;;;;6.17;1.90;;;;;;;25.66;51.40;98815.78;5151134;27;20663;-89
2022/05/14 18:53:17;;;;;;;5.07;2.43;;;;;;;25.61;51.62;98820.88;5138984;27;20182;-88
2022/05/14 18:55:44;;;;;;;6.97;2.80;;;;;;;25.72;50.99;98831.16;5119802;27;20179;-88
2022/05/14 18:58:09;;;;;;;6.27;2.90;;;;;;;25.67;50.85;98833.56;5136728;27;20517;-87
2022/05/14 19:00:36;;;;;;;6.30;2.33;;;;;;;25.55;50.44;98841.22;5144739;27;20639;-88
2022/05/14 19:03:03;;;;;;;10.80;2.23;;;;;;;25.51;51.37;98833.72;5146802;27;20174;-88
2022/05/14 19:08:14;;;;;;;8.50;1.80;;;;;;;25.51;50.99;98852.50;5137143;27;20166;-88
2022/05/14 19:10:41;;;;;;;7.27;2.67;;;;;;;25.55;50.72;98856.50;5119470;27;20166;-88
2022/05/14 19:13:08;;;;;;;6.97;1.97;;;;;;;25.61;50.78;98856.59;5153800;27;20613;-88